To NAV CANADA Home Page Login to a new session Search on AWWS site Feedback and Comments Disclaimer Vers la page française équivalente Tips FAQ What's new on the site To the Forecasts and Observations / NOTAM section To "File a Flight Plan" website Publications and other links Update of the User's profile FIC Telephone Numbers My Weather Data Folder Route Weather Data Regional Weather Data Local Weather Data To the Forecasts and Observations / NOTAM section
Request Generated 02/08/2016 at 14:02:28 UTC . Weather information available at that time is displayed.

METAR/TAF

FREDERICTON/FREDERICTON INTL/NB    (show WxCam)

METAR CYFC 081300Z AUTO 03014KT 9SM -SN CLR M12/M15 A3015 RMK PRESFR
SLP213=
SPECI CYFC 081253Z AUTO 02012KT 9SM -SN CLR M12/M15 A3016 RMK PRESFR
SLP215=
SPECI CYFC 081252Z AUTO 03012KT 9SM CLR M12/M15 A3016 RMK PRESFR
SLP215=
SPECI CYFC 081213Z AUTO 03010KT 9SM -SN FEW028 M13/M17 A3019 RMK
SLP225=
METAR CYFC 081200Z AUTO 05008KT 9SM CLR M14/M17 A3019 RMK SLP226=
METAR CYFC 081100Z AUTO 03011KT 9SM CLR M14/M18 A3021 RMK SLP233=

TAF CYFC 081138Z 0812/0824 03012G22KT P6SM SCT250
FM081500 03015G25KT P6SM -SHSN BKN025 TEMPO 0815/0822 3SM -SN
BKN020
FM082200 02018G28KT 1SM -SN BLSN VV010
RMK FCST BASED ON AUTO OBS. NXT FCST BY 081800Z=
Your time UTC time
Weather data provided by Environment Canada and NAV CANADA